Time;durP1;ratioP1;P1;durP2;ratioP2;P2;SDS_P1;SDS_P2;PMS_P1;PMS_P2;Temp;Humidity;BMP_temperature;BMP_pressure;BME280_temperature;BME280_humidity;BME280_pressure;Samples;Min_cycle;Max_cycle;Signal;HPM_P1;HPM_P2
2022/04/04 00:00:27;;;;;;;;;;;;;;;;;;5034939;28;20474;-46
2022/04/04 00:02:53;;;;;;;;;;;;;;;;;;5035115;28;19909;-47
2022/04/04 00:05:19;;;;;;;;;;;;;;;;;;5034696;28;19917;-47
2022/04/04 00:07:45;;;;;;;;;;;;;;;;;;5035130;28;19912;-46
2022/04/04 00:10:11;;;;;;;;;;;;;;;;;;5035043;28;19912;-54
2022/04/04 00:12:36;;;;;;;;;;;;;;;;;;5034578;28;19905;-55
2022/04/04 00:15:02;;;;;;;;;;;;;;;;;;5034454;28;19924;-54
2022/04/04 00:17:28;;;;;;;;;;;;;;;;;;5034515;28;20416;-53
2022/04/04 00:19:54;;;;;;;;;;;;;;;;;;5033239;28;19912;-53
2022/04/04 00:22:20;;;;;;;;;;;;;;;;;;5034663;28;19905;-54
2022/04/04 00:24:46;;;;;;;;;;;;;;;;;;5034330;28;20055;-54
2022/04/04 00:27:12;;;;;;;;;;;;;;;;;;5034322;28;19905;-55
2022/04/04 00:29:38;;;;;;;;;;;;;;;;;;5034325;28;20291;-55
2022/04/04 00:32:03;;;;;;;;;;;;;;;;;;5034391;28;19996;-53
2022/04/04 00:34:29;;;;;;;;;;;;;;;;;;5034048;28;19959;-54
2022/04/04 00:36:55;;;;;;;;;;;;;;;;;;5034379;28;19928;-54
2022/04/04 00:39:21;;;;;;;;;;;;;;;;;;5033995;28;19912;-55
2022/04/04 00:41:47;;;;;;;;;;;;;;;;;;5034055;28;20381;-55
2022/04/04 00:44:13;;;;;;;;;;;;;;;;;;5033939;28;19950;-54
2022/04/04 00:46:39;;;;;;;;;;;;;;;;;;5034004;28;19905;-51
2022/04/04 00:49:05;;;;;;;;;;;;;;;;;;5033860;28;19905;-52
2022/04/04 00:51:31;;;;;;;;;;;;;;;;;;5033789;28;19905;-51
2022/04/04 00:53:57;;;;;;;;;;;;;;;;;;5033723;28;20402;-53
2022/04/04 00:56:23;;;;;;;;;;;;;;;;;;5033826;28;19909;-53
2022/04/04 00:58:49;;;;;;;;;;;;;;;;;;5033801;28;20392;-52
2022/04/04 01:01:15;;;;;;;;;;;;;;;;;;5033894;28;19912;-52
2022/04/04 01:03:40;;;;;;;;;;;;;;;;;;5033600;28;20322;-53
2022/04/04 01:06:06;;;;;;;;;;;;;;;;;;5033689;28;19995;-51
2022/04/04 01:08:32;;;;;;;;;;;;;;;;;;5033654;28;19916;-53
2022/04/04 01:10:58;;;;;;;;;;;;;;;;;;5033653;28;20315;-55
2022/04/04 01:13:24;;;;;;;;;;;;;;;;;;5033447;28;19920;-54
2022/04/04 01:15:50;;;;;;;;;;;;;;;;;;5033468;28;19913;-53
2022/04/04 01:18:16;;;;;;;;;;;;;;;;;;5032099;28;19912;-53
2022/04/04 01:20:42;;;;;;;;;;;;;;;;;;5033385;28;20391;-54
2022/04/04 01:23:07;;;;;;;;;;;;;;;;;;5033426;28;19908;-54
2022/04/04 01:25:35;;;;;;;;;;;;;;;;;;5033522;28;19912;-53
2022/04/04 01:28:00;;;;;;;;;;;;;;;;;;5033273;28;19927;-52
2022/04/04 01:30:26;;;;;;;;;;;;;;;;;;5032798;28;20284;-52
2022/04/04 01:32:52;;;;;;;;;;;;;;;;;;5033142;28;20459;-52
2022/04/04 01:35:18;;;;;;;;;;;;;;;;;;5033022;28;19952;-53
2022/04/04 01:37:44;;;;;;;;;;;;;;;;;;5033105;28;19905;-54
2022/04/04 01:40:10;;;;;;;;;;;;;;;;;;5033069;28;20296;-46
2022/04/04 01:42:37;;;;;;;;;;;;;;;;;;5033277;28;19905;-52
2022/04/04 01:45:03;;;;;;;;;;;;;;;;;;5033022;28;19909;-54
2022/04/04 01:47:28;;;;;;;;;;;;;;;;;;5032911;28;20287;-55
2022/04/04 01:49:54;;;;;;;;;;;;;;;;;;5032875;28;19905;-54
2022/04/04 01:52:20;;;;;;;;;;;;;;;;;;5033096;28;19948;-53
2022/04/04 01:54:46;;;;;;;;;;;;;;;;;;5032704;28;19991;-54
2022/04/04 01:57:12;;;;;;;;;;;;;;;;;;5032837;28;20019;-53
2022/04/04 01:59:38;;;;;;;;;;;;;;;;;;5032820;28;19948;-46
2022/04/04 02:02:04;;;;;;;;;;;;;;;;;;5032805;28;19905;-47
2022/04/04 02:04:30;;;;;;;;;;;;;;;;;;5032633;28;19967;-48
2022/04/04 02:06:55;;;;;;;;;;;;;;;;;;5032796;28;19958;-46
2022/04/04 02:09:21;;;;;;;;;;;;;;;;;;5033004;28;19905;-46
2022/04/04 02:11:48;;;;;;;;;;;;;;;;;;5032686;28;20293;-47
2022/04/04 02:14:13;;;;;;;;;;;;;;;;;;5032667;28;19920;-46
2022/04/04 02:16:39;;;;;;;;;;;;;;;;;;5032860;28;19905;-46
2022/04/04 02:19:05;;;;;;;;;;;;;;;;;;5032695;28;19932;-47
2022/04/04 02:21:31;;;;;;;;;;;;;;;;;;5032528;28;19905;-46
2022/04/04 02:23:57;;;;;;;;;;;;;;;;;;5032629;28;19983;-46
2022/04/04 02:26:23;;;;;;;;;;;;;;;;;;5032862;28;19909;-46
2022/04/04 02:28:49;;;;;;;;;;;;;;;;;;5032557;28;20268;-47
2022/04/04 02:31:15;;;;;;;;;;;;;;;;;;5032852;28;19912;-46
2022/04/04 02:33:40;;;;;;;;;;;;;;;;;;5032389;28;19913;-46
2022/04/04 02:36:08;;;;;;;;;;;;;;;;;;5032612;28;19905;-53
2022/04/04 02:38:34;;;;;;;;;;;;;;;;;;5032296;28;19912;-55
2022/04/04 02:41:00;;;;;;;;;;;;;;;;;;5032293;28;19905;-54
2022/04/04 02:43:26;;;;;;;;;;;;;;;;;;5035581;28;19945;-54
2022/04/04 02:45:52;;;;;;;;;;;;;;;;;;5036253;28;19912;-53
2022/04/04 02:48:18;;;;;;;;;;;;;;;;;;5036554;28;19927;-54
2022/04/04 02:50:44;;;;;;;;;;;;;;;;;;5036112;28;19905;-53
2022/04/04 02:53:10;;;;;;;;;;;;;;;;;;5036335;28;19913;-55
2022/04/04 02:58:20;;;;;;;;;;;;;;;;;;5036145;28;20047;-53
2022/04/04 03:00:46;;;;;;;;;;;;;;;;;;5036244;28;19996;-55
2022/04/04 03:03:12;;;;;;;;;;;;;;;;;;5035710;28;19912;-55
2022/04/04 03:05:38;;;;;;;;;;;;;;;;;;5035861;28;20395;-55
2022/04/04 03:08:04;;;;;;;;;;;;;;;;;;5035897;28;20360;-55
2022/04/04 03:10:30;;;;;;;;;;;;;;;;;;5035883;28;19905;-53
2022/04/04 03:12:56;;;;;;;;;;;;;;;;;;5035802;28;19969;-47
2022/04/04 03:15:22;;;;;;;;;;;;;;;;;;5035833;28;19959;-46
2022/04/04 03:17:48;;;;;;;;;;;;;;;;;;5035802;28;19905;-47
2022/04/04 03:20:14;;;;;;;;;;;;;;;;;;5035800;28;19951;-47
2022/04/04 03:22:40;;;;;;;;;;;;;;;;;;5035754;28;19905;-47
2022/04/04 03:25:05;;;;;;;;;;;;;;;;;;5035641;28;20335;-46
2022/04/04 03:27:31;;;;;;;;;;;;;;;;;;5035669;28;19913;-46
2022/04/04 03:29:57;;;;;;;;;;;;;;;;;;5035798;28;19912;-46
2022/04/04 03:32:23;;;;;;;;;;;;;;;;;;5035635;28;19956;-47
2022/04/04 03:34:49;;;;;;;;;;;;;;;;;;5035387;28;19936;-46
2022/04/04 03:37:16;;;;;;;;;;;;;;;;;;5035762;28;20007;-46
2022/04/04 03:39:42;;;;;;;;;;;;;;;;;;5035527;28;19905;-47
2022/04/04 03:42:08;;;;;;;;;;;;;;;;;;5035328;28;19905;-46
2022/04/04 03:44:33;;;;;;;;;;;;;;;;;;5035372;28;19956;-46
2022/04/04 03:46:59;;;;;;;;;;;;;;;;;;5035210;28;19911;-46
2022/04/04 03:49:25;;;;;;;;;;;;;;;;;;5035347;28;19928;-46
2022/04/04 03:51:51;;;;;;;;;;;;;;;;;;5035511;28;19905;-47
2022/04/04 03:54:17;;;;;;;;;;;;;;;;;;5035105;28;20012;-46
2022/04/04 03:56:45;;;;;;;;;;;;;;;;;;5035204;28;19909;-47
2022/04/04 03:59:11;;;;;;;;;;;;;;;;;;5035649;28;19912;-46
2022/04/04 04:01:37;;;;;;;;;;;;;;;;;;5362265;22;19919;-48
2022/04/04 04:06:51;;;;;;;;;;;;;;;;;;5035040;28;19955;-47
2022/04/04 04:09:17;;;;;;;;;;;;;;;;;;5035070;28;20362;-47
2022/04/04 04:11:43;;;;;;;;;;;;;;;;;;5035217;28;19911;-47
2022/04/04 04:14:09;;;;;;;;;;;;;;;;;;5034779;28;19913;-47
2022/04/04 04:16:35;;;;;;;;;;;;;;;;;;5034873;28;19948;-47
2022/04/04 04:19:01;;;;;;;;;;;;;;;;;;5034820;28;19905;-48
2022/04/04 04:21:27;;;;;;;;;;;;;;;;;;5035056;28;19928;-47
2022/04/04 04:23:53;;;;;;;;;;;;;;;;;;5034644;28;19905;-47
2022/04/04 04:26:21;;;;;;;;;;;;;;;;;;5034726;28;19912;-47
2022/04/04 04:28:47;;;;;;;;;;;;;;;;;;5034914;28;19971;-48
2022/04/04 04:31:14;;;;;;;;;;;;;;;;;;5034541;28;19909;-47
2022/04/04 04:33:39;;;;;;;;;;;;;;;;;;5034506;28;19913;-48
2022/04/04 04:36:05;;;;;;;;;;;;;;;;;;5034460;28;19999;-47
2022/04/04 04:38:31;;;;;;;;;;;;;;;;;;5034772;28;19912;-59
2022/04/04 04:40:57;;;;;;;;;;;;;;;;;;5034400;28;19905;-59
2022/04/04 04:43:23;;;;;;;;;;;;;;;;;;5034384;28;20271;-59
2022/04/04 04:45:49;;;;;;;;;;;;;;;;;;5034552;28;19905;-59
2022/04/04 04:48:15;;;;;;;;;;;;;;;;;;5034208;28;19909;-58
2022/04/04 04:50:41;;;;;;;;;;;;;;;;;;5034195;28;19944;-59
2022/04/04 04:53:07;;;;;;;;;;;;;;;;;;5034072;28;19960;-59
2022/04/04 04:55:33;;;;;;;;;;;;;;;;;;5034154;28;19905;-58
2022/04/04 04:57:59;;;;;;;;;;;;;;;;;;5034089;28;20003;-59
2022/04/04 05:00:25;;;;;;;;;;;;;;;;;;5033973;28;19904;-59
2022/04/04 05:03:36;;;;;;;;;;;;;;;;;;5033671;28;19917;-59
2022/04/04 05:05:37;;;;;;;;;;;;;;;;;;5022525;28;20004;-59
2022/04/04 05:08:03;;;;;;;;;;;;;;;;;;5034112;28;19944;-59
2022/04/04 05:10:29;;;;;;;;;;;;;;;;;;5033784;28;19905;-59
2022/04/04 05:12:55;;;;;;;;;;;;;;;;;;5033823;28;20307;-59
2022/04/04 05:15:22;;;;;;;;;;;;;;;;;;5034064;28;20320;-58
2022/04/04 05:17:48;;;;;;;;;;;;;;;;;;5033727;28;19908;-58
2022/04/04 05:20:14;;;;;;;;;;;;;;;;;;5033523;28;20051;-58
2022/04/04 05:22:40;;;;;;;;;;;;;;;;;;5033542;28;19912;-58
2022/04/04 05:25:06;;;;;;;;;;;;;;;;;;5033498;28;20426;-59
2022/04/04 05:27:31;;;;;;;;;;;;;;;;;;5033400;28;19905;-59
2022/04/04 05:29:57;;;;;;;;;;;;;;;;;;5033466;28;19905;-58
2022/04/04 05:32:23;;;;;;;;;;;;;;;;;;5033254;28;19909;-58
2022/04/04 05:34:49;;;;;;;;;;;;;;;;;;5033222;28;20011;-59
2022/04/04 05:37:15;;;;;;;;;;;;;;;;;;5033248;28;19909;-58
2022/04/04 05:39:41;;;;;;;;;;;;;;;;;;5033198;28;19911;-58
2022/04/04 05:42:07;;;;;;;;;;;;;;;;;;5033102;28;19959;-58
2022/04/04 05:44:33;;;;;;;;;;;;;;;;;;5033409;28;20000;-58
2022/04/04 05:46:59;;;;;;;;;;;;;;;;;;5033078;28;20341;-58
2022/04/04 05:49:25;;;;;;;;;;;;;;;;;;5033042;28;19944;-58
2022/04/04 05:51:51;;;;;;;;;;;;;;;;;;5033094;28;19905;-58
2022/04/04 05:54:17;;;;;;;;;;;;;;;;;;5032804;28;20362;-58
2022/04/04 05:56:46;;;;;;;;;;;;;;;;;;5032974;28;19912;-58
2022/04/04 05:59:12;;;;;;;;;;;;;;;;;;5032923;28;20290;-58
2022/04/04 06:01:38;;;;;;;;;;;;;;;;;;5032585;28;19908;-55
2022/04/04 06:04:03;;;;;;;;;;;;;;;;;;5032779;28;19932;-57
2022/04/04 06:06:29;;;;;;;;;;;;;;;;;;5032749;28;20003;-57
2022/04/04 06:08:55;;;;;;;;;;;;;;;;;;5032843;28;19913;-56
2022/04/04 06:11:21;;;;;;;;;;;;;;;;;;5033129;28;19911;-49
2022/04/04 06:13:47;;;;;;;;;;;;;;;;;;5032694;28;20420;-48
2022/04/04 06:16:14;;;;;;;;;;;;;;;;;;5032930;28;19905;-48
2022/04/04 06:18:40;;;;;;;;;;;;;;;;;;5032734;28;19951;-47
2022/04/04 06:21:06;;;;;;;;;;;;;;;;;;5032664;28;19905;-50
2022/04/04 06:23:33;;;;;;;;;;;;;;;;;;5032854;28;19912;-47
2022/04/04 06:25:59;;;;;;;;;;;;;;;;;;5032987;28;19905;-47
2022/04/04 06:28:25;;;;;;;;;;;;;;;;;;5032591;28;19963;-48
2022/04/04 06:30:51;;;;;;;;;;;;;;;;;;5032811;28;19912;-49
2022/04/04 06:33:18;;;;;;;;;;;;;;;;;;5032281;28;19959;-47
2022/04/04 06:35:44;;;;;;;;;;;;;;;;;;5032792;28;19905;-47
2022/04/04 06:38:10;;;;;;;;;;;;;;;;;;5032496;28;19905;-47
2022/04/04 06:40:36;;;;;;;;;;;;;;;;;;5032726;28;20043;-47
2022/04/04 06:43:02;;;;;;;;;;;;;;;;;;5032417;28;19992;-47
2022/04/04 06:45:28;;;;;;;;;;;;;;;;;;5032766;28;19912;-47
2022/04/04 06:47:54;;;;;;;;;;;;;;;;;;5032459;28;19905;-47
2022/04/04 06:50:20;;;;;;;;;;;;;;;;;;5032387;28;19905;-46
2022/04/04 06:52:47;;;;;;;;;;;;;;;;;;5032399;28;19912;-47
2022/04/04 06:55:15;;;;;;;;;;;;;;;;;;5032596;28;19913;-46
2022/04/04 06:57:41;;;;;;;;;;;;;;;;;;5032402;28;19912;-48
2022/04/04 07:00:08;;;;;;;;;;;;;;;;;;5032241;28;19906;-50
2022/04/04 07:02:34;;;;;;;;;;;;;;;;;;5031974;28;19917;-48
2022/04/04 07:05:00;;;;;;;;;;;;;;;;;;5032323;28;19967;-47
2022/04/04 07:07:26;;;;;;;;;;;;;;;;;;5032215;28;19912;-48
2022/04/04 07:09:52;;;;;;;;;;;;;;;;;;5032406;28;20360;-46
2022/04/04 07:12:18;;;;;;;;;;;;;;;;;;5032100;28;19909;-47
2022/04/04 07:14:44;;;;;;;;;;;;;;;;;;5032371;28;19913;-46
2022/04/04 07:17:10;;;;;;;;;;;;;;;;;;5032167;28;19912;-47
2022/04/04 07:19:36;;;;;;;;;;;;;;;;;;5032146;28;19905;-46
2022/04/04 07:22:02;;;;;;;;;;;;;;;;;;5032155;28;20359;-46
2022/04/04 07:24:28;;;;;;;;;;;;;;;;;;5032344;28;19951;-47
2022/04/04 07:26:54;;;;;;;;;;;;;;;;;;5032238;28;20313;-47
2022/04/04 07:29:20;;;;;;;;;;;;;;;;;;5035002;28;19905;-46
2022/04/04 07:31:46;;;;;;;;;;;;;;;;;;5035630;28;20283;-46
2022/04/04 07:34:11;;;;;;;;;;;;;;;;;;5035634;28;19920;-46
2022/04/04 07:36:37;;;;;;;;;;;;;;;;;;5035817;28;19992;-47
2022/04/04 07:39:03;;;;;;;;;;;;;;;;;;5035821;28;20367;-48
2022/04/04 07:41:29;;;;;;;;;;;;;;;;;;5035680;28;20440;-47
2022/04/04 07:43:55;;;;;;;;;;;;;;;;;;5035786;28;19913;-47
2022/04/04 07:46:21;;;;;;;;;;;;;;;;;;5035424;28;20286;-47
2022/04/04 07:48:47;;;;;;;;;;;;;;;;;;5035654;28;19984;-47
2022/04/04 07:51:13;;;;;;;;;;;;;;;;;;5035406;28;20421;-46
2022/04/04 07:53:39;;;;;;;;;;;;;;;;;;5035121;28;19920;-48
2022/04/04 07:56:05;;;;;;;;;;;;;;;;;;5035538;28;20263;-47
2022/04/04 07:58:30;;;;;;;;;;;;;;;;;;5035210;28;19912;-47
2022/04/04 08:00:56;;;;;;;;;;;;;;;;;;5035223;28;19905;-47
2022/04/04 08:03:23;;;;;;;;;;;;;;;;;;5034889;28;19917;-47
2022/04/04 08:05:49;;;;;;;;;;;;;;;;;;5035433;28;19913;-47
2022/04/04 08:08:15;;;;;;;;;;;;;;;;;;5034698;28;20295;-48
2022/04/04 08:10:41;;;;;;;;;;;;;;;;;;5034665;28;19912;-47
2022/04/04 08:13:07;;;;;;;;;;;;;;;;;;5034926;28;20469;-47
2022/04/04 08:15:33;;;;;;;;;;;;;;;;;;5034566;28;19995;-48
2022/04/04 08:17:59;;;;;;;;;;;;;;;;;;5034883;28;19904;-46
2022/04/04 08:20:25;;;;;;;;;;;;;;;;;;5034568;28;20051;-47
2022/04/04 08:22:51;;;;;;;;;;;;;;;;;;5034444;28;19906;-48
2022/04/04 08:25:17;;;;;;;;;;;;;;;;;;5034378;28;19949;-48
2022/04/04 08:27:43;;;;;;;;;;;;;;;;;;5034222;28;19983;-48
2022/04/04 08:30:10;;;;;;;;;;;;;;;;;;5034926;28;19912;-47
2022/04/04 08:32:36;;;;;;;;;;;;;;;;;;5034878;28;19905;-47
2022/04/04 08:35:02;;;;;;;;;;;;;;;;;;5034505;28;20194;-48
2022/04/04 08:37:28;;;;;;;;;;;;;;;;;;5034550;28;20225;-48
2022/04/04 08:39:54;;;;;;;;;;;;;;;;;;5033634;28;19905;-47
2022/04/04 08:42:26;;;;;;;;;;;;;;;;;;5034380;28;19951;-48
2022/04/04 08:44:52;;;;;;;;;;;;;;;;;;5040994;28;19916;-48
2022/04/04 08:47:18;;;;;;;;;;;;;;;;;;5034330;28;19905;-48
2022/04/04 08:49:44;;;;;;;;;;;;;;;;;;5034278;28;20024;-47
2022/04/04 08:52:10;;;;;;;;;;;;;;;;;;5034183;28;19940;-48
2022/04/04 08:54:36;;;;;;;;;;;;;;;;;;5034169;28;20386;-47
2022/04/04 08:57:02;;;;;;;;;;;;;;;;;;5034403;28;19905;-46
2022/04/04 08:59:28;;;;;;;;;;;;;;;;;;5033785;28;19912;-47
2022/04/04 09:01:54;;;;;;;;;;;;;;;;;;5033639;28;19959;-48
2022/04/04 09:04:20;;;;;;;;;;;;;;;;;;5033739;28;19905;-47
2022/04/04 09:06:46;;;;;;;;;;;;;;;;;;5033751;28;20010;-47
2022/04/04 09:09:12;;;;;;;;;;;;;;;;;;5033614;28;19912;-46
2022/04/04 09:11:38;;;;;;;;;;;;;;;;;;5033564;28;19967;-47
2022/04/04 09:14:06;;;;;;;;;;;;;;;;;;5033510;28;19913;-45
2022/04/04 09:16:32;;;;;;;;;;;;;;;;;;5033490;28;19905;-48
2022/04/04 09:18:58;;;;;;;;;;;;;;;;;;5033678;28;20290;-48
2022/04/04 09:21:24;;;;;;;;;;;;;;;;;;5033412;28;20000;-49
2022/04/04 09:23:50;;;;;;;;;;;;;;;;;;5033323;28;20375;-49
2022/04/04 09:26:16;;;;;;;;;;;;;;;;;;5033216;28;19905;-49
2022/04/04 09:28:42;;;;;;;;;;;;;;;;;;5033211;28;19912;-49
2022/04/04 09:31:08;;;;;;;;;;;;;;;;;;5033139;28;20355;-49
2022/04/04 09:33:34;;;;;;;;;;;;;;;;;;5033098;28;19912;-48
2022/04/04 09:36:00;;;;;;;;;;;;;;;;;;5033032;28;20386;-49
2022/04/04 09:38:26;;;;;;;;;;;;;;;;;;5033338;28;19913;-49
2022/04/04 09:40:52;;;;;;;;;;;;;;;;;;5033023;28;19958;-48
2022/04/04 09:43:18;;;;;;;;;;;;;;;;;;5032972;28;19912;-48
2022/04/04 09:45:44;;;;;;;;;;;;;;;;;;5032864;28;19905;-47
2022/04/04 09:48:11;;;;;;;;;;;;;;;;;;5032840;28;19968;-48
2022/04/04 09:50:38;;;;;;;;;;;;;;;;;;5032999;28;19912;-47
2022/04/04 09:53:04;;;;;;;;;;;;;;;;;;5032828;28;19909;-50
2022/04/04 09:55:30;;;;;;;;;;;;;;;;;;5032742;28;19920;-47
2022/04/04 09:57:55;;;;;;;;;;;;;;;;;;5032733;28;19991;-46
2022/04/04 10:00:21;;;;;;;;;;;;;;;;;;5032907;28;20000;-45
2022/04/04 10:02:47;;;;;;;;;;;;;;;;;;5032718;28;19928;-49
2022/04/04 10:05:13;;;;;;;;;;;;;;;;;;5033129;28;19959;-46
2022/04/04 10:07:39;;;;;;;;;;;;;;;;;;5032787;28;19947;-47
2022/04/04 10:10:05;;;;;;;;;;;;;;;;;;5032586;28;19913;-51
2022/04/04 10:12:31;;;;;;;;;;;;;;;;;;5032775;28;19909;-54
2022/04/04 10:14:57;;;;;;;;;;;;;;;;;;5032429;28;20335;-51
2022/04/04 10:17:23;;;;;;;;;;;;;;;;;;5032422;28;19913;-51
2022/04/04 10:19:49;;;;;;;;;;;;;;;;;;5032528;28;20283;-54
2022/04/04 10:22:15;;;;;;;;;;;;;;;;;;5032350;28;19905;-52
2022/04/04 10:24:40;;;;;;;;;;;;;;;;;;5032414;28;19905;-51
2022/04/04 10:27:08;;;;;;;;;;;;;;;;;;5032451;28;19905;-53
2022/04/04 10:29:34;;;;;;;;;;;;;;;;;;5032326;28;20016;-53
2022/04/04 10:32:02;;;;;;;;;;;;;;;;;;5032341;28;19933;-53
2022/04/04 10:34:28;;;;;;;;;;;;;;;;;;5032238;28;19920;-52
2022/04/04 10:36:54;;;;;;;;;;;;;;;;;;5032726;28;19928;-51
2022/04/04 10:39:20;;;;;;;;;;;;;;;;;;5032628;28;20004;-52
2022/04/04 10:41:46;;;;;;;;;;;;;;;;;;5032552;28;20340;-51
2022/04/04 10:44:12;;;;;;;;;;;;;;;;;;5032478;28;19906;-52
2022/04/04 10:46:38;;;;;;;;;;;;;;;;;;5032561;28;19905;-48
2022/04/04 10:49:04;;;;;;;;;;;;;;;;;;5032482;28;20363;-46
2022/04/04 10:51:30;;;;;;;;;;;;;;;;;;5032433;28;19976;-46
2022/04/04 10:53:59;;;;;;;;;;;;;;;;;;5032384;28;19913;-46
2022/04/04 10:56:25;;;;;;;;;;;;;;;;;;5032374;28;19915;-47
2022/04/04 10:58:51;;;;;;;;;;;;;;;;;;5032692;28;19947;-49
2022/04/04 11:01:18;;;;;;;;;;;;;;;;;;5032357;28;19905;-46
2022/04/04 11:03:44;;;;;;;;;;;;;;;;;;5034465;28;19917;-48
2022/04/04 11:08:54;;;;;;;;;;;;;;;;;;5036200;28;19966;-48
2022/04/04 11:11:21;;;;;;;;;;;;;;;;;;5036038;28;19905;-48
2022/04/04 11:13:47;;;;;;;;;;;;;;;;;;5036267;28;19917;-46
2022/04/04 11:16:13;;;;;;;;;;;;;;;;;;5035937;28;19912;-46
2022/04/04 11:18:39;;;;;;;;;;;;;;;;;;5036008;28;20051;-47
2022/04/04 11:21:05;;;;;;;;;;;;;;;;;;5035962;28;19979;-47
2022/04/04 11:23:34;;;;;;;;;;;;;;;;;;5036021;28;19905;-51
2022/04/04 11:26:01;;;;;;;;;;;;;;;;;;5035913;28;19912;-51
2022/04/04 11:28:31;;;;;;;;;;;;;;;;;;5036021;28;19905;-52
2022/04/04 11:30:56;;;;;;;;;;;;;;;;;;5036076;28;19905;-54
2022/04/04 11:33:22;;;;;;;;;;;;;;;;;;5035654;28;19983;-50
2022/04/04 11:35:48;;;;;;;;;;;;;;;;;;5035734;28;19905;-49
2022/04/04 11:38:17;;;;;;;;;;;;;;;;;;5035690;28;19909;-52
2022/04/04 11:40:45;;;;;;;;;;;;;;;;;;5035635;28;20371;-54
2022/04/04 11:43:11;;;;;;;;;;;;;;;;;;5035713;28;19952;-52
2022/04/04 11:45:37;;;;;;;;;;;;;;;;;;5034051;28;19951;-52
2022/04/04 11:48:03;;;;;;;;;;;;;;;;;;5035489;28;19905;-54
2022/04/04 11:50:30;;;;;;;;;;;;;;;;;;5035302;28;19951;-53
2022/04/04 11:52:57;;;;;;;;;;;;;;;;;;5035696;28;19941;-54
2022/04/04 11:55:25;;;;;;;;;;;;;;;;;;5035274;28;20390;-54
2022/04/04 11:57:51;;;;;;;;;;;;;;;;;;5035249;28;19905;-53
2022/04/04 12:00:17;;;;;;;;;;;;;;;;;;5035564;28;19928;-51
2022/04/04 12:02:43;;;;;;;;;;;;;;;;;;5034902;28;19917;-54
2022/04/04 12:05:12;;;;;;;;;;;;;;;;;;5035328;28;19905;-53
2022/04/04 12:07:37;;;;;;;;;;;;;;;;;;5035089;28;20018;-54
2022/04/04 12:10:04;;;;;;;;;;;;;;;;;;5035070;28;19905;-51
2022/04/04 12:12:31;;;;;;;;;;;;;;;;;;5035264;28;19995;-52
2022/04/04 12:14:56;;;;;;;;;;;;;;;;;;5034927;28;19913;-53
2022/04/04 12:17:23;;;;;;;;;;;;;;;;;;5035039;28;19912;-51
2022/04/04 12:19:50;;;;;;;;;;;;;;;;;;5035137;28;19927;-52
2022/04/04 12:25:00;;;;;;;;;;;;;;;;;;5034780;28;19936;-52
2022/04/04 12:27:26;;;;;;;;;;;;;;;;;;5034749;28;19905;-53
2022/04/04 12:29:52;;;;;;;;;;;;;;;;;;5034611;28;19928;-51
2022/04/04 12:32:18;;;;;;;;;;;;;;;;;;5034667;28;19948;-50
2022/04/04 12:34:44;;;;;;;;;;;;;;;;;;5034341;28;20326;-54
2022/04/04 12:37:10;;;;;;;;;;;;;;;;;;5034434;28;20282;-56
2022/04/04 12:39:35;;;;;;;;;;;;;;;;;;5034268;28;20015;-55
2022/04/04 12:42:01;;;;;;;;;;;;;;;;;;5034453;28;19992;-56
2022/04/04 12:44:27;;;;;;;;;;;;;;;;;;5034138;28;20359;-54
2022/04/04 12:46:53;;;;;;;;;;;;;;;;;;5034331;28;19928;-51
2022/04/04 12:49:19;;;;;;;;;;;;;;;;;;5034082;28;20332;-52
2022/04/04 12:51:45;;;;;;;;;;;;;;;;;;5034329;28;20087;-49
2022/04/04 12:54:11;;;;;;;;;;;;;;;;;;5034047;28;19920;-50
2022/04/04 12:56:36;;;;;;;;;;;;;;;;;;5034071;28;19905;-51
2022/04/04 12:59:03;;;;;;;;;;;;;;;;;;5033945;28;19987;-53
2022/04/04 13:01:29;;;;;;;;;;;;;;;;;;5034203;28;19905;-51
2022/04/04 13:03:55;;;;;;;;;;;;;;;;;;5033838;28;20283;-51
2022/04/04 13:06:21;;;;;;;;;;;;;;;;;;5034317;28;19904;-47
2022/04/04 13:08:47;;;;;;;;;;;;;;;;;;5033924;28;20383;-44
2022/04/04 13:11:13;;;;;;;;;;;;;;;;;;5033860;28;19909;-44
2022/04/04 13:13:39;;;;;;;;;;;;;;;;;;5033825;28;19904;-44
2022/04/04 13:16:05;;;;;;;;;;;;;;;;;;5033805;28;19905;-44
2022/04/04 13:18:31;;;;;;;;;;;;;;;;;;5033706;28;19928;-43
2022/04/04 13:20:57;;;;;;;;;;;;;;;;;;5033484;28;20337;-46
2022/04/04 13:23:23;;;;;;;;;;;;;;;;;;5033466;28;20393;-43
2022/04/04 13:25:50;;;;;;;;;;;;;;;;;;5033062;28;19905;-44
2022/04/04 13:28:16;;;;;;;;;;;;;;;;;;5033561;28;19916;-46
2022/04/04 13:30:42;;;;;;;;;;;;;;;;;;5033489;28;20000;-45
2022/04/04 13:33:08;;;;;;;;;;;;;;;;;;5033305;28;19912;-49
2022/04/04 13:35:34;;;;;;;;;;;;;;;;;;5033374;28;19913;-50
2022/04/04 13:38:00;;;;;;;;;;;;;;;;;;5033369;28;19951;-50
2022/04/04 13:40:26;;;;;;;;;;;;;;;;;;5033529;28;20007;-45
2022/04/04 13:42:52;;;;;;;;;;;;;;;;;;5033221;28;20274;-45
2022/04/04 13:45:18;;;;;;;;;;;;;;;;;;5033104;28;19912;-46
2022/04/04 13:47:43;;;;;;;;;;;;;;;;;;5033199;28;19936;-45
2022/04/04 13:50:09;;;;;;;;;;;;;;;;;;5033456;28;20347;-46
2022/04/04 13:52:37;;;;;;;;;;;;;;;;;;5033002;28;20318;-45
2022/04/04 13:55:02;;;;;;;;;;;;;;;;;;5032937;28;19919;-46
2022/04/04 13:57:28;;;;;;;;;;;;;;;;;;5033057;28;19992;-45
2022/04/04 13:59:54;;;;;;;;;;;;;;;;;;5032957;28;19966;-46
2022/04/04 14:02:21;;;;;;;;;;;;;;;;;;5032674;28;20291;-45
2022/04/04 14:04:47;;;;;;;;;;;;;;;;;;5033258;28;19909;-45
2022/04/04 14:07:13;;;;;;;;;;;;;;;;;;5033104;28;19927;-45
2022/04/04 14:09:39;;;;;;;;;;;;;;;;;;5033163;28;19905;-45
2022/04/04 14:12:04;;;;;;;;;;;;;;;;;;5032769;28;19905;-45
2022/04/04 14:14:30;;;;;;;;;;;;;;;;;;5032715;28;19913;-46
2022/04/04 14:16:57;;;;;;;;;;;;;;;;;;5032750;28;20323;-46
2022/04/04 14:19:23;;;;;;;;;;;;;;;;;;5032725;28;19912;-44
2022/04/04 14:21:49;;;;;;;;;;;;;;;;;;5032574;28;20397;-44
2022/04/04 14:24:16;;;;;;;;;;;;;;;;;;5032406;28;19956;-45
2022/04/04 14:26:42;;;;;;;;;;;;;;;;;;5032714;28;19936;-45
2022/04/04 14:29:08;;;;;;;;;;;;;;;;;;5032323;28;20397;-45
2022/04/04 14:31:34;;;;;;;;;;;;;;;;;;5032411;28;19905;-45
2022/04/04 14:34:01;;;;;;;;;;;;;;;;;;5032305;28;20248;-46
2022/04/04 14:36:27;;;;;;;;;;;;;;;;;;5032434;28;19905;-45
2022/04/04 14:38:53;;;;;;;;;;;;;;;;;;5035097;28;19912;-44
2022/04/04 14:41:19;;;;;;;;;;;;;;;;;;5036509;28;19905;-45
2022/04/04 14:43:45;;;;;;;;;;;;;;;;;;5036669;28;19908;-45
2022/04/04 14:46:11;;;;;;;;;;;;;;;;;;5036427;28;19905;-46
2022/04/04 14:48:39;;;;;;;;;;;;;;;;;;5036485;28;19912;-46
2022/04/04 14:51:09;;;;;;;;;;;;;;;;;;5036451;28;19992;-48
2022/04/04 14:53:34;;;;;;;;;;;;;;;;;;5036534;28;19909;-45
2022/04/04 14:56:00;;;;;;;;;;;;;;;;;;5036326;28;20435;-46
2022/04/04 14:58:26;;;;;;;;;;;;;;;;;;5036256;28;19967;-45
2022/04/04 15:00:52;;;;;;;;;;;;;;;;;;5036231;28;20383;-45
2022/04/04 15:03:18;;;;;;;;;;;;;;;;;;5035960;28;19917;-45
2022/04/04 15:05:44;;;;;;;;;;;;;;;;;;5036163;28;19952;-45
2022/04/04 15:08:10;;;;;;;;;;;;;;;;;;5036062;28;19905;-45
2022/04/04 15:10:36;;;;;;;;;;;;;;;;;;5036319;28;19963;-45
2022/04/04 15:13:02;;;;;;;;;;;;;;;;;;5036074;28;19905;-45
2022/04/04 15:15:28;;;;;;;;;;;;;;;;;;5035906;28;19920;-46
2022/04/04 15:17:53;;;;;;;;;;;;;;;;;;5036055;28;20418;-46
2022/04/04 15:20:19;;;;;;;;;;;;;;;;;;5035649;28;19985;-45
2022/04/04 15:22:45;;;;;;;;;;;;;;;;;;5035694;28;19956;-45
2022/04/04 15:25:12;;;;;;;;;;;;;;;;;;5035387;28;20355;-45
2022/04/04 15:27:37;;;;;;;;;;;;;;;;;;5035618;28;19905;-45
2022/04/04 15:30:03;;;;;;;;;;;;;;;;;;5035296;28;19992;-46
2022/04/04 15:32:29;;;;;;;;;;;;;;;;;;5035715;28;19912;-45
2022/04/04 15:34:55;;;;;;;;;;;;;;;;;;5035436;28;19917;-46
2022/04/04 15:37:21;;;;;;;;;;;;;;;;;;5035831;28;19905;-45
2022/04/04 15:39:47;;;;;;;;;;;;;;;;;;5035537;28;19916;-46
2022/04/04 15:42:13;;;;;;;;;;;;;;;;;;5035529;28;19905;-47
2022/04/04 15:44:39;;;;;;;;;;;;;;;;;;5035432;28;19905;-45
2022/04/04 15:47:10;;;;;;;;;;;;;;;;;;5035441;28;20398;-46
2022/04/04 15:49:36;;;;;;;;;;;;;;;;;;5035107;28;19916;-45
2022/04/04 15:52:02;;;;;;;;;;;;;;;;;;5035609;28;19909;-46
2022/04/04 15:54:28;;;;;;;;;;;;;;;;;;5035229;28;19913;-45
2022/04/04 15:56:54;;;;;;;;;;;;;;;;;;5035341;28;19959;-45
2022/04/04 15:59:19;;;;;;;;;;;;;;;;;;5035531;28;19911;-45
2022/04/04 16:01:46;;;;;;;;;;;;;;;;;;5035049;28;19905;-46
2022/04/04 16:04:13;;;;;;;;;;;;;;;;;;5035200;28;19944;-45
2022/04/04 16:06:38;;;;;;;;;;;;;;;;;;5035047;28;19952;-44
2022/04/04 16:09:05;;;;;;;;;;;;;;;;;;5035027;28;19905;-46
2022/04/04 16:11:33;;;;;;;;;;;;;;;;;;5034970;28;19905;-45
2022/04/04 16:13:59;;;;;;;;;;;;;;;;;;5034745;28;20371;-45
2022/04/04 16:16:27;;;;;;;;;;;;;;;;;;5035143;28;19905;-45
2022/04/04 16:18:53;;;;;;;;;;;;;;;;;;5035096;28;19950;-45
2022/04/04 16:21:19;;;;;;;;;;;;;;;;;;5034688;28;19904;-46
2022/04/04 16:23:45;;;;;;;;;;;;;;;;;;5035041;28;20406;-44
2022/04/04 16:26:11;;;;;;;;;;;;;;;;;;5034693;28;19967;-45
2022/04/04 16:28:37;;;;;;;;;;;;;;;;;;5034546;28;19912;-45
2022/04/04 16:31:03;;;;;;;;;;;;;;;;;;5034574;28;19933;-45
2022/04/04 16:33:29;;;;;;;;;;;;;;;;;;5034807;28;20005;-45
2022/04/04 16:35:54;;;;;;;;;;;;;;;;;;5034517;28;19928;-45
2022/04/04 16:38:20;;;;;;;;;;;;;;;;;;5034486;28;19911;-46
2022/04/04 16:40:46;;;;;;;;;;;;;;;;;;5034221;28;19938;-45
2022/04/04 16:43:12;;;;;;;;;;;;;;;;;;5034176;28;19912;-45
2022/04/04 16:45:38;;;;;;;;;;;;;;;;;;5034141;28;19905;-45
2022/04/04 16:48:05;;;;;;;;;;;;;;;;;;5034082;28;19909;-45